sensor_id;sensor_type;location;lat;lon;timestamp;temperature;humidity
52058;DHT22;38063;53.210;6.504;2022-09-30T00:01:08;8.30;99.90
52058;DHT22;38063;53.210;6.504;2022-09-30T00:03:34;8.30;99.90
52058;DHT22;38063;53.210;6.504;2022-09-30T00:06:03;8.30;99.90
52058;DHT22;38063;53.210;6.504;2022-09-30T00:08:29;8.30;99.90
52058;DHT22;38063;53.210;6.504;2022-09-30T00:13:25;8.30;99.90
52058;DHT22;38063;53.210;6.504;2022-09-30T00:15:51;8.30;99.90
52058;DHT22;38063;53.210;6.504;2022-09-30T00:18:16;8.20;99.90
52058;DHT22;38063;53.210;6.504;2022-09-30T00:20:42;8.20;99.90
52058;DHT22;38063;53.210;6.504;2022-09-30T00:23:07;8.20;99.90
52058;DHT22;38063;53.210;6.504;2022-09-30T00:25:33;8.20;99.90
52058;DHT22;38063;53.210;6.504;2022-09-30T00:27:58;8.20;99.90
52058;DHT22;38063;53.210;6.504;2022-09-30T00:30:24;8.20;99.90
52058;DHT22;38063;53.210;6.504;2022-09-30T00:32:50;8.10;99.90
52058;DHT22;38063;53.210;6.504;2022-09-30T00:35:15;8.20;99.90
52058;DHT22;38063;53.210;6.504;2022-09-30T00:37:41;8.20;99.90
52058;DHT22;38063;53.210;6.504;2022-09-30T00:40:07;8.10;99.90
52058;DHT22;38063;53.210;6.504;2022-09-30T00:42:39;8.10;99.90
52058;DHT22;38063;53.210;6.504;2022-09-30T00:45:09;8.10;99.90
52058;DHT22;38063;53.210;6.504;2022-09-30T00:47:53;8.10;99.90
52058;DHT22;38063;53.210;6.504;2022-09-30T00:50:32;8.00;99.90
52058;DHT22;38063;53.210;6.504;2022-09-30T00:53:20;8.00;99.90
52058;DHT22;38063;53.210;6.504;2022-09-30T00:56:02;8.00;99.90
52058;DHT22;38063;53.210;6.504;2022-09-30T00:58:58;7.90;99.90
52058;DHT22;38063;53.210;6.504;2022-09-30T01:01:25;7.90;99.90
52058;DHT22;38063;53.210;6.504;2022-09-30T01:04:02;7.90;99.90
52058;DHT22;38063;53.210;6.504;2022-09-30T01:06:29;7.90;99.90
52058;DHT22;38063;53.210;6.504;2022-09-30T01:08:55;7.90;99.90
52058;DHT22;38063;53.210;6.504;2022-09-30T01:11:23;7.80;99.90
52058;DHT22;38063;53.210;6.504;2022-09-30T01:13:54;7.80;99.90
52058;DHT22;38063;53.210;6.504;2022-09-30T01:33:31;7.70;99.90
52058;DHT22;38063;53.210;6.504;2022-09-30T01:36:12;7.80;99.90
52058;DHT22;38063;53.210;6.504;2022-09-30T01:38:48;7.80;99.90
52058;DHT22;38063;53.210;6.504;2022-09-30T01:41:43;7.80;99.90
52058;DHT22;38063;53.210;6.504;2022-09-30T01:44:38;7.80;99.90
52058;DHT22;38063;53.210;6.504;2022-09-30T01:47:23;7.80;99.90
52058;DHT22;38063;53.210;6.504;2022-09-30T01:55:03;7.70;99.90
52058;DHT22;38063;53.210;6.504;2022-09-30T01:57:40;7.70;99.90
52058;DHT22;38063;53.210;6.504;2022-09-30T02:00:09;7.60;99.90
52058;DHT22;38063;53.210;6.504;2022-09-30T02:05:39;7.60;99.90
52058;DHT22;38063;53.210;6.504;2022-09-30T02:11:21;7.50;99.90
52058;DHT22;38063;53.210;6.504;2022-09-30T02:14:14;7.50;99.90
52058;DHT22;38063;53.210;6.504;2022-09-30T02:16:58;7.50;99.90
52058;DHT22;38063;53.210;6.504;2022-09-30T02:19:36;7.40;99.90
52058;DHT22;38063;53.210;6.504;2022-09-30T02:22:12;7.40;99.90
52058;DHT22;38063;53.210;6.504;2022-09-30T02:24:41;7.40;99.90
52058;DHT22;38063;53.210;6.504;2022-09-30T02:27:22;7.30;99.90
52058;DHT22;38063;53.210;6.504;2022-09-30T02:29:55;7.30;99.90
52058;DHT22;38063;53.210;6.504;2022-09-30T02:32:32;7.20;99.90
52058;DHT22;38063;53.210;6.504;2022-09-30T02:35:08;7.20;99.90
52058;DHT22;38063;53.210;6.504;2022-09-30T02:37:44;7.20;99.90
52058;DHT22;38063;53.210;6.504;2022-09-30T02:40:18;7.10;99.90
52058;DHT22;38063;53.210;6.504;2022-09-30T02:42:46;7.10;99.90
52058;DHT22;38063;53.210;6.504;2022-09-30T02:45:16;7.10;99.90
52058;DHT22;38063;53.210;6.504;2022-09-30T02:50:46;7.00;99.90
52058;DHT22;38063;53.210;6.504;2022-09-30T02:56:56;6.90;99.90
52058;DHT22;38063;53.210;6.504;2022-09-30T02:59:23;6.90;99.90
52058;DHT22;38063;53.210;6.504;2022-09-30T03:01:50;6.90;99.90
52058;DHT22;38063;53.210;6.504;2022-09-30T03:04:21;6.80;99.90
52058;DHT22;38063;53.210;6.504;2022-09-30T03:06:47;6.80;99.90
52058;DHT22;38063;53.210;6.504;2022-09-30T03:09:13;7.20;99.90
52058;DHT22;38063;53.210;6.504;2022-09-30T03:11:39;6.80;99.90
52058;DHT22;38063;53.210;6.504;2022-09-30T03:14:20;6.80;99.90
52058;DHT22;38063;53.210;6.504;2022-09-30T03:25:40;6.70;99.90
52058;DHT22;38063;53.210;6.504;2022-09-30T03:29:02;6.70;99.90
52058;DHT22;38063;53.210;6.504;2022-09-30T03:31:24;6.70;99.90
52058;DHT22;38063;53.210;6.504;2022-09-30T03:34:18;7.10;99.90
52058;DHT22;38063;53.210;6.504;2022-09-30T03:37:08;6.70;99.90
52058;DHT22;38063;53.210;6.504;2022-09-30T03:45:22;6.60;99.90
52058;DHT22;38063;53.210;6.504;2022-09-30T03:47:52;6.60;99.90
52058;DHT22;38063;53.210;6.504;2022-09-30T03:50:21;6.60;99.90
52058;DHT22;38063;53.210;6.504;2022-09-30T03:52:48;6.50;99.90
52058;DHT22;38063;53.210;6.504;2022-09-30T03:55:15;6.50;99.90
52058;DHT22;38063;53.210;6.504;2022-09-30T03:57:41;6.50;99.90
52058;DHT22;38063;53.210;6.504;2022-09-30T04:00:11;6.50;99.90
52058;DHT22;38063;53.210;6.504;2022-09-30T04:02:37;6.50;99.90
52058;DHT22;38063;53.210;6.504;2022-09-30T04:05:04;6.50;99.90
52058;DHT22;38063;53.210;6.504;2022-09-30T04:07:31;6.40;99.90
52058;DHT22;38063;53.210;6.504;2022-09-30T04:09:56;6.40;99.90
52058;DHT22;38063;53.210;6.504;2022-09-30T04:12:22;6.40;99.90
52058;DHT22;38063;53.210;6.504;2022-09-30T04:14:48;6.30;99.90
52058;DHT22;38063;53.210;6.504;2022-09-30T04:17:14;6.30;99.90
52058;DHT22;38063;53.210;6.504;2022-09-30T04:19:39;6.30;99.90
52058;DHT22;38063;53.210;6.504;2022-09-30T04:22:06;6.30;99.90
52058;DHT22;38063;53.210;6.504;2022-09-30T04:24:32;6.30;99.90
52058;DHT22;38063;53.210;6.504;2022-09-30T04:26:58;6.30;99.90
52058;DHT22;38063;53.210;6.504;2022-09-30T04:29:24;6.20;99.90
52058;DHT22;38063;53.210;6.504;2022-09-30T04:31:50;6.20;99.90
52058;DHT22;38063;53.210;6.504;2022-09-30T04:34:15;6.20;99.90
52058;DHT22;38063;53.210;6.504;2022-09-30T04:36:41;6.20;99.90
52058;DHT22;38063;53.210;6.504;2022-09-30T04:39:07;6.20;99.90
52058;DHT22;38063;53.210;6.504;2022-09-30T04:41:33;6.20;99.90
52058;DHT22;38063;53.210;6.504;2022-09-30T04:43:58;6.10;99.90
52058;DHT22;38063;53.210;6.504;2022-09-30T04:46:24;6.10;99.90
52058;DHT22;38063;53.210;6.504;2022-09-30T04:48:50;6.10;99.90
52058;DHT22;38063;53.210;6.504;2022-09-30T04:51:18;6.00;99.90
52058;DHT22;38063;53.210;6.504;2022-09-30T04:53:45;6.00;99.90
52058;DHT22;38063;53.210;6.504;2022-09-30T04:56:11;6.00;99.90
52058;DHT22;38063;53.210;6.504;2022-09-30T04:58:37;6.00;99.90
52058;DHT22;38063;53.210;6.504;2022-09-30T05:01:13;6.00;99.90
52058;DHT22;38063;53.210;6.504;2022-09-30T05:03:40;6.00;99.90
52058;DHT22;38063;53.210;6.504;2022-09-30T05:06:06;5.90;99.90
52058;DHT22;38063;53.210;6.504;2022-09-30T05:08:32;6.00;99.90
52058;DHT22;38063;53.210;6.504;2022-09-30T05:11:00;6.00;99.90
52058;DHT22;38063;53.210;6.504;2022-09-30T05:13:35;6.00;99.90
52058;DHT22;38063;53.210;6.504;2022-09-30T05:16:01;5.90;99.90
52058;DHT22;38063;53.210;6.504;2022-09-30T05:18:27;5.90;99.90
52058;DHT22;38063;53.210;6.504;2022-09-30T05:20:55;5.90;99.90
52058;DHT22;38063;53.210;6.504;2022-09-30T05:23:22;5.90;99.90
52058;DHT22;38063;53.210;6.504;2022-09-30T05:25:48;5.80;99.90
52058;DHT22;38063;53.210;6.504;2022-09-30T05:28:14;5.80;99.90
52058;DHT22;38063;53.210;6.504;2022-09-30T05:30:41;5.80;99.90
52058;DHT22;38063;53.210;6.504;2022-09-30T05:33:08;5.80;99.90
52058;DHT22;38063;53.210;6.504;2022-09-30T05:35:34;5.70;99.90
52058;DHT22;38063;53.210;6.504;2022-09-30T05:38:00;5.70;99.90
52058;DHT22;38063;53.210;6.504;2022-09-30T05:40:27;5.70;99.90
52058;DHT22;38063;53.210;6.504;2022-09-30T05:42:55;5.70;99.90
52058;DHT22;38063;53.210;6.504;2022-09-30T05:45:21;5.70;99.90
52058;DHT22;38063;53.210;6.504;2022-09-30T05:47:53;5.70;99.90
52058;DHT22;38063;53.210;6.504;2022-09-30T05:50:21;5.70;99.90
52058;DHT22;38063;53.210;6.504;2022-09-30T05:52:47;5.70;99.90
52058;DHT22;38063;53.210;6.504;2022-09-30T05:55:14;5.70;99.90
52058;DHT22;38063;53.210;6.504;2022-09-30T05:57:41;5.70;99.90
52058;DHT22;38063;53.210;6.504;2022-09-30T06:00:08;5.90;99.90
52058;DHT22;38063;53.210;6.504;2022-09-30T06:02:34;5.70;99.90
52058;DHT22;38063;53.210;6.504;2022-09-30T06:05:03;5.70;99.90
52058;DHT22;38063;53.210;6.504;2022-09-30T06:07:29;5.70;99.90
52058;DHT22;38063;53.210;6.504;2022-09-30T06:09:55;5.70;99.90
52058;DHT22;38063;53.210;6.504;2022-09-30T06:12:21;6.10;99.90
52058;DHT22;38063;53.210;6.504;2022-09-30T06:14:46;5.80;99.90
52058;DHT22;38063;53.210;6.504;2022-09-30T06:17:12;5.80;99.90
52058;DHT22;38063;53.210;6.504;2022-09-30T06:19:38;5.80;99.90
52058;DHT22;38063;53.210;6.504;2022-09-30T06:22:03;5.80;99.90
52058;DHT22;38063;53.210;6.504;2022-09-30T06:24:29;5.90;99.90
52058;DHT22;38063;53.210;6.504;2022-09-30T06:26:55;5.90;99.90
52058;DHT22;38063;53.210;6.504;2022-09-30T06:29:21;5.90;99.90
52058;DHT22;38063;53.210;6.504;2022-09-30T06:31:46;6.00;99.90
52058;DHT22;38063;53.210;6.504;2022-09-30T06:34:12;6.00;99.90
52058;DHT22;38063;53.210;6.504;2022-09-30T06:36:38;6.00;99.90
52058;DHT22;38063;53.210;6.504;2022-09-30T06:39:03;6.00;99.90
52058;DHT22;38063;53.210;6.504;2022-09-30T06:41:30;6.10;99.90
52058;DHT22;38063;53.210;6.504;2022-09-30T06:43:56;6.10;99.90
52058;DHT22;38063;53.210;6.504;2022-09-30T06:46:23;6.10;99.90
52058;DHT22;38063;53.210;6.504;2022-09-30T06:48:53;6.20;99.90
52058;DHT22;38063;53.210;6.504;2022-09-30T06:51:19;6.20;99.90
52058;DHT22;38063;53.210;6.504;2022-09-30T06:53:49;6.20;99.90
52058;DHT22;38063;53.210;6.504;2022-09-30T06:56:15;6.30;99.90
52058;DHT22;38063;53.210;6.504;2022-09-30T06:58:42;6.30;99.90
52058;DHT22;38063;53.210;6.504;2022-09-30T07:01:10;6.30;99.90
52058;DHT22;38063;53.210;6.504;2022-09-30T07:03:41;6.30;99.90
52058;DHT22;38063;53.210;6.504;2022-09-30T07:06:07;6.30;99.90
52058;DHT22;38063;53.210;6.504;2022-09-30T07:08:35;6.40;99.90
52058;DHT22;38063;53.210;6.504;2022-09-30T07:11:03;6.40;99.90
52058;DHT22;38063;53.210;6.504;2022-09-30T07:13:30;6.40;99.90
52058;DHT22;38063;53.210;6.504;2022-09-30T07:15:57;6.50;99.90
52058;DHT22;38063;53.210;6.504;2022-09-30T07:18:23;6.60;99.90
52058;DHT22;38063;53.210;6.504;2022-09-30T07:20:53;6.60;99.90
52058;DHT22;38063;53.210;6.504;2022-09-30T07:23:20;6.60;99.90
52058;DHT22;38063;53.210;6.504;2022-09-30T07:25:50;6.70;99.90
52058;DHT22;38063;53.210;6.504;2022-09-30T07:28:16;6.70;99.90
52058;DHT22;38063;53.210;6.504;2022-09-30T07:30:42;7.90;99.90
52058;DHT22;38063;53.210;6.504;2022-09-30T07:33:08;7.40;99.90
52058;DHT22;38063;53.210;6.504;2022-09-30T07:35:35;7.00;99.90
52058;DHT22;38063;53.210;6.504;2022-09-30T07:38:02;7.10;99.90
52058;DHT22;38063;53.210;6.504;2022-09-30T07:40:28;7.10;99.90
52058;DHT22;38063;53.210;6.504;2022-09-30T07:42:56;7.20;99.90
52058;DHT22;38063;53.210;6.504;2022-09-30T07:45:22;7.20;99.90
52058;DHT22;38063;53.210;6.504;2022-09-30T07:47:49;7.30;99.90
52058;DHT22;38063;53.210;6.504;2022-09-30T07:50:14;7.30;99.90
52058;DHT22;38063;53.210;6.504;2022-09-30T07:52:41;7.40;99.90
52058;DHT22;38063;53.210;6.504;2022-09-30T07:55:07;7.50;99.90
52058;DHT22;38063;53.210;6.504;2022-09-30T07:57:33;7.60;99.90
52058;DHT22;38063;53.210;6.504;2022-09-30T07:59:58;7.70;99.90
52058;DHT22;38063;53.210;6.504;2022-09-30T08:02:24;7.80;99.90
52058;DHT22;38063;53.210;6.504;2022-09-30T08:04:50;7.80;99.90
52058;DHT22;38063;53.210;6.504;2022-09-30T08:07:17;7.90;99.90
52058;DHT22;38063;53.210;6.504;2022-09-30T08:09:43;7.90;99.90
52058;DHT22;38063;53.210;6.504;2022-09-30T08:12:09;8.00;99.90
52058;DHT22;38063;53.210;6.504;2022-09-30T08:14:34;8.10;99.90
52058;DHT22;38063;53.210;6.504;2022-09-30T08:17:00;8.20;99.90
52058;DHT22;38063;53.210;6.504;2022-09-30T08:19:27;8.30;99.90
52058;DHT22;38063;53.210;6.504;2022-09-30T08:21:54;8.40;99.90
52058;DHT22;38063;53.210;6.504;2022-09-30T08:24:21;8.50;99.90
52058;DHT22;38063;53.210;6.504;2022-09-30T08:26:46;8.50;99.90
52058;DHT22;38063;53.210;6.504;2022-09-30T08:29:12;8.60;99.90
52058;DHT22;38063;53.210;6.504;2022-09-30T08:31:39;8.70;99.90
52058;DHT22;38063;53.210;6.504;2022-09-30T08:34:05;8.90;99.90
52058;DHT22;38063;53.210;6.504;2022-09-30T08:36:31;9.00;99.90
52058;DHT22;38063;53.210;6.504;2022-09-30T08:38:57;9.10;99.90
52058;DHT22;38063;53.210;6.504;2022-09-30T08:51:55;9.70;99.90
52058;DHT22;38063;53.210;6.504;2022-09-30T08:54:24;9.90;99.90
52058;DHT22;38063;53.210;6.504;2022-09-30T08:56:50;10.00;99.90
52058;DHT22;38063;53.210;6.504;2022-09-30T08:59:43;10.20;99.90
52058;DHT22;38063;53.210;6.504;2022-09-30T09:04:47;10.40;99.90
52058;DHT22;38063;53.210;6.504;2022-09-30T09:07:39;10.60;99.90
52058;DHT22;38063;53.210;6.504;2022-09-30T09:18:28;11.30;99.90
52058;DHT22;38063;53.210;6.504;2022-09-30T09:21:06;11.50;99.90
52058;DHT22;38063;53.210;6.504;2022-09-30T09:23:39;11.60;99.90
52058;DHT22;38063;53.210;6.504;2022-09-30T09:26:05;11.80;99.90
52058;DHT22;38063;53.210;6.504;2022-09-30T09:30:58;12.10;99.90
52058;DHT22;38063;53.210;6.504;2022-09-30T09:33:35;12.20;99.90
52058;DHT22;38063;53.210;6.504;2022-09-30T09:37:19;12.30;99.90
52058;DHT22;38063;53.210;6.504;2022-09-30T09:42:01;12.60;99.90
52058;DHT22;38063;53.210;6.504;2022-09-30T09:44:32;12.80;99.90
52058;DHT22;38063;53.210;6.504;2022-09-30T09:47:04;13.00;99.90
52058;DHT22;38063;53.210;6.504;2022-09-30T09:49:32;13.10;99.90
52058;DHT22;38063;53.210;6.504;2022-09-30T09:54:33;13.40;99.90
52058;DHT22;38063;53.210;6.504;2022-09-30T09:57:10;13.50;99.90
52058;DHT22;38063;53.210;6.504;2022-09-30T09:59:52;13.60;99.90
52058;DHT22;38063;53.210;6.504;2022-09-30T10:02:27;13.80;99.90
52058;DHT22;38063;53.210;6.504;2022-09-30T10:04:53;14.00;99.90
52058;DHT22;38063;53.210;6.504;2022-09-30T10:07:33;14.20;99.90
52058;DHT22;38063;53.210;6.504;2022-09-30T10:10:19;14.30;99.90
52058;DHT22;38063;53.210;6.504;2022-09-30T10:12:44;14.50;99.90
52058;DHT22;38063;53.210;6.504;2022-09-30T10:15:30;14.70;99.90
52058;DHT22;38063;53.210;6.504;2022-09-30T10:17:57;15.00;99.90
52058;DHT22;38063;53.210;6.504;2022-09-30T10:20:53;15.10;99.90
52058;DHT22;38063;53.210;6.504;2022-09-30T10:23:31;15.20;99.90
52058;DHT22;38063;53.210;6.504;2022-09-30T10:26:16;15.70;99.90
52058;DHT22;38063;53.210;6.504;2022-09-30T10:28:56;15.50;99.90
52058;DHT22;38063;53.210;6.504;2022-09-30T10:31:32;15.70;99.90
52058;DHT22;38063;53.210;6.504;2022-09-30T10:34:08;15.90;99.90
52058;DHT22;38063;53.210;6.504;2022-09-30T10:36:36;16.00;99.90
52058;DHT22;38063;53.210;6.504;2022-09-30T10:39:29;16.20;99.90
52058;DHT22;38063;53.210;6.504;2022-09-30T10:44:43;16.60;99.90
52058;DHT22;38063;53.210;6.504;2022-09-30T10:47:15;16.70;99.90
52058;DHT22;38063;53.210;6.504;2022-09-30T10:49:47;16.70;99.90
52058;DHT22;38063;53.210;6.504;2022-09-30T10:52:25;16.60;99.90
52058;DHT22;38063;53.210;6.504;2022-09-30T10:54:54;16.80;99.90
52058;DHT22;38063;53.210;6.504;2022-09-30T10:57:22;16.90;99.90
52058;DHT22;38063;53.210;6.504;2022-09-30T10:59:50;16.90;99.90
52058;DHT22;38063;53.210;6.504;2022-09-30T11:02:30;17.00;99.90
52058;DHT22;38063;53.210;6.504;2022-09-30T11:05:17;17.10;99.90
52058;DHT22;38063;53.210;6.504;2022-09-30T11:08:17;17.10;99.90
52058;DHT22;38063;53.210;6.504;2022-09-30T11:11:10;17.30;99.90
52058;DHT22;38063;53.210;6.504;2022-09-30T11:13:47;17.60;99.90
52058;DHT22;38063;53.210;6.504;2022-09-30T11:16:36;17.70;99.90
52058;DHT22;38063;53.210;6.504;2022-09-30T11:19:31;17.90;99.90
52058;DHT22;38063;53.210;6.504;2022-09-30T11:21:59;17.90;99.90
52058;DHT22;38063;53.210;6.504;2022-09-30T11:24:42;18.00;99.90
52058;DHT22;38063;53.210;6.504;2022-09-30T11:37:57;17.60;99.90
52058;DHT22;38063;53.210;6.504;2022-09-30T11:51:28;17.50;99.90
52058;DHT22;38063;53.210;6.504;2022-09-30T12:04:55;17.30;99.90
52058;DHT22;38063;53.210;6.504;2022-09-30T12:10:33;17.30;99.90
52058;DHT22;38063;53.210;6.504;2022-09-30T12:13:09;17.40;99.90
52058;DHT22;38063;53.210;6.504;2022-09-30T12:15:38;17.60;99.90
52058;DHT22;38063;53.210;6.504;2022-09-30T12:18:10;17.90;99.90
52058;DHT22;38063;53.210;6.504;2022-09-30T12:20:52;18.10;99.90
52058;DHT22;38063;53.210;6.504;2022-09-30T12:25:55;17.80;99.90
52058;DHT22;38063;53.210;6.504;2022-09-30T12:28:39;18.00;99.90
52058;DHT22;38063;53.210;6.504;2022-09-30T12:39:33;18.60;99.90
52058;DHT22;38063;53.210;6.504;2022-09-30T12:42:17;18.60;99.90
52058;DHT22;38063;53.210;6.504;2022-09-30T12:45:24;18.60;99.90
52058;DHT22;38063;53.210;6.504;2022-09-30T12:47:59;18.40;99.90
52058;DHT22;38063;53.210;6.504;2022-09-30T12:50:30;18.50;99.90
52058;DHT22;38063;53.210;6.504;2022-09-30T12:53:11;18.50;99.90
52058;DHT22;38063;53.210;6.504;2022-09-30T12:55:41;18.60;99.90
52058;DHT22;38063;53.210;6.504;2022-09-30T12:58:20;18.60;99.90
52058;DHT22;38063;53.210;6.504;2022-09-30T13:03:50;17.90;99.90
52058;DHT22;38063;53.210;6.504;2022-09-30T13:06:20;17.70;99.90
52058;DHT22;38063;53.210;6.504;2022-09-30T13:11:35;17.60;99.90
52058;DHT22;38063;53.210;6.504;2022-09-30T13:14:16;17.80;99.90
52058;DHT22;38063;53.210;6.504;2022-09-30T13:16:59;18.00;99.90
52058;DHT22;38063;53.210;6.504;2022-09-30T13:32:38;18.10;99.90
52058;DHT22;38063;53.210;6.504;2022-09-30T13:40:56;17.50;99.90
52058;DHT22;38063;53.210;6.504;2022-09-30T13:43:33;17.50;99.90
52058;DHT22;38063;53.210;6.504;2022-09-30T13:46:07;17.70;99.90
52058;DHT22;38063;53.210;6.504;2022-09-30T13:48:38;17.60;99.90
52058;DHT22;38063;53.210;6.504;2022-09-30T13:51:10;17.50;99.90
52058;DHT22;38063;53.210;6.504;2022-09-30T13:53:53;17.40;99.90
52058;DHT22;38063;53.210;6.504;2022-09-30T13:56:22;17.50;99.90
52058;DHT22;38063;53.210;6.504;2022-09-30T14:02:03;17.50;99.90
52058;DHT22;38063;53.210;6.504;2022-09-30T14:04:57;17.50;99.90
52058;DHT22;38063;53.210;6.504;2022-09-30T14:07:50;17.30;99.90
52058;DHT22;38063;53.210;6.504;2022-09-30T14:12:58;17.40;99.90
52058;DHT22;38063;53.210;6.504;2022-09-30T14:16:29;17.60;99.90
52058;DHT22;38063;53.210;6.504;2022-09-30T14:18:53;17.70;99.90
52058;DHT22;38063;53.210;6.504;2022-09-30T14:24:00;17.90;99.90
52058;DHT22;38063;53.210;6.504;2022-09-30T14:29:08;17.70;99.90
52058;DHT22;38063;53.210;6.504;2022-09-30T14:31:45;17.70;99.90
52058;DHT22;38063;53.210;6.504;2022-09-30T14:34:12;17.50;99.90
52058;DHT22;38063;53.210;6.504;2022-09-30T14:36:39;17.40;99.90
52058;DHT22;38063;53.210;6.504;2022-09-30T14:39:13;17.30;99.90
52058;DHT22;38063;53.210;6.504;2022-09-30T14:41:44;17.40;99.90
52058;DHT22;38063;53.210;6.504;2022-09-30T14:44:13;17.40;99.90
52058;DHT22;38063;53.210;6.504;2022-09-30T14:46:43;17.50;99.90
52058;DHT22;38063;53.210;6.504;2022-09-30T14:49:19;17.40;99.90
52058;DHT22;38063;53.210;6.504;2022-09-30T14:51:52;17.20;99.90
52058;DHT22;38063;53.210;6.504;2022-09-30T14:54:23;17.20;99.90
52058;DHT22;38063;53.210;6.504;2022-09-30T14:56:51;17.10;99.90
52058;DHT22;38063;53.210;6.504;2022-09-30T14:59:30;17.10;99.90
52058;DHT22;38063;53.210;6.504;2022-09-30T15:02:07;17.10;99.90
52058;DHT22;38063;53.210;6.504;2022-09-30T15:04:38;17.10;99.90
52058;DHT22;38063;53.210;6.504;2022-09-30T15:07:10;17.10;99.90
52058;DHT22;38063;53.210;6.504;2022-09-30T15:09:41;17.00;99.90
52058;DHT22;38063;53.210;6.504;2022-09-30T15:12:13;17.00;99.90
52058;DHT22;38063;53.210;6.504;2022-09-30T15:14:48;16.90;99.90
52058;DHT22;38063;53.210;6.504;2022-09-30T15:17:34;16.90;99.90
52058;DHT22;38063;53.210;6.504;2022-09-30T15:20:01;16.90;99.90
52058;DHT22;38063;53.210;6.504;2022-09-30T15:22:29;16.80;99.90
52058;DHT22;38063;53.210;6.504;2022-09-30T15:24:56;16.70;99.90
52058;DHT22;38063;53.210;6.504;2022-09-30T15:27:32;16.60;99.90
52058;DHT22;38063;53.210;6.504;2022-09-30T15:30:20;16.50;99.90
52058;DHT22;38063;53.210;6.504;2022-09-30T15:32:47;16.30;99.90
52058;DHT22;38063;53.210;6.504;2022-09-30T15:35:18;16.20;99.90
52058;DHT22;38063;53.210;6.504;2022-09-30T15:37:46;16.20;99.90
52058;DHT22;38063;53.210;6.504;2022-09-30T15:40:14;16.10;99.90
52058;DHT22;38063;53.210;6.504;2022-09-30T15:43:04;16.20;99.90
52058;DHT22;38063;53.210;6.504;2022-09-30T15:45:35;16.10;99.90
52058;DHT22;38063;53.210;6.504;2022-09-30T15:50:58;16.10;99.90
52058;DHT22;38063;53.210;6.504;2022-09-30T15:53:46;16.00;99.90
52058;DHT22;38063;53.210;6.504;2022-09-30T15:56:21;15.90;99.90
52058;DHT22;38063;53.210;6.504;2022-09-30T15:59:02;15.80;99.90
52058;DHT22;38063;53.210;6.504;2022-09-30T16:01:47;15.80;99.90
52058;DHT22;38063;53.210;6.504;2022-09-30T16:06:58;15.60;99.90
52058;DHT22;38063;53.210;6.504;2022-09-30T16:09:28;15.50;99.90
52058;DHT22;38063;53.210;6.504;2022-09-30T16:17:29;15.40;99.90
52058;DHT22;38063;53.210;6.504;2022-09-30T16:19:58;15.30;99.90
52058;DHT22;38063;53.210;6.504;2022-09-30T16:25:18;15.20;99.90
52058;DHT22;38063;53.210;6.504;2022-09-30T16:27:44;15.30;99.90
52058;DHT22;38063;53.210;6.504;2022-09-30T16:30:17;15.10;99.90
52058;DHT22;38063;53.210;6.504;2022-09-30T16:32:45;15.10;99.90
52058;DHT22;38063;53.210;6.504;2022-09-30T16:35:20;15.00;99.90
52058;DHT22;38063;53.210;6.504;2022-09-30T16:37:47;14.90;99.90
52058;DHT22;38063;53.210;6.504;2022-09-30T16:40:32;14.90;99.90
52058;DHT22;38063;53.210;6.504;2022-09-30T16:43:00;14.80;99.90
52058;DHT22;38063;53.210;6.504;2022-09-30T16:45:27;14.80;99.90
52058;DHT22;38063;53.210;6.504;2022-09-30T16:47:53;14.70;99.90
52058;DHT22;38063;53.210;6.504;2022-09-30T16:50:39;14.70;99.90
52058;DHT22;38063;53.210;6.504;2022-09-30T16:53:05;14.70;99.90
52058;DHT22;38063;53.210;6.504;2022-09-30T16:55:31;14.60;99.90
52058;DHT22;38063;53.210;6.504;2022-09-30T16:57:58;14.60;99.90
52058;DHT22;38063;53.210;6.504;2022-09-30T17:00:25;14.50;99.90
52058;DHT22;38063;53.210;6.504;2022-09-30T17:02:50;14.50;99.90
52058;DHT22;38063;53.210;6.504;2022-09-30T17:05:19;14.40;99.90
52058;DHT22;38063;53.210;6.504;2022-09-30T17:07:50;14.30;99.90
52058;DHT22;38063;53.210;6.504;2022-09-30T17:10:25;14.30;99.90
52058;DHT22;38063;53.210;6.504;2022-09-30T17:12:54;14.20;99.90
52058;DHT22;38063;53.210;6.504;2022-09-30T17:15:20;14.10;99.90
52058;DHT22;38063;53.210;6.504;2022-09-30T17:17:48;14.00;99.90
52058;DHT22;38063;53.210;6.504;2022-09-30T17:20:14;13.90;99.90
52058;DHT22;38063;53.210;6.504;2022-09-30T17:22:40;13.90;99.90
52058;DHT22;38063;53.210;6.504;2022-09-30T17:25:06;13.80;99.90
52058;DHT22;38063;53.210;6.504;2022-09-30T17:27:32;13.70;99.90
52058;DHT22;38063;53.210;6.504;2022-09-30T17:29:58;13.70;99.90
52058;DHT22;38063;53.210;6.504;2022-09-30T17:32:26;13.60;99.90
52058;DHT22;38063;53.210;6.504;2022-09-30T17:34:51;13.70;99.90
52058;DHT22;38063;53.210;6.504;2022-09-30T17:37:17;13.50;99.90
52058;DHT22;38063;53.210;6.504;2022-09-30T17:39:44;13.40;99.90
52058;DHT22;38063;53.210;6.504;2022-09-30T17:42:14;13.30;99.90
52058;DHT22;38063;53.210;6.504;2022-09-30T17:44:59;13.30;99.90
52058;DHT22;38063;53.210;6.504;2022-09-30T17:47:24;13.20;99.90
52058;DHT22;38063;53.210;6.504;2022-09-30T17:49:51;13.10;99.90
52058;DHT22;38063;53.210;6.504;2022-09-30T17:52:17;13.20;99.90
52058;DHT22;38063;53.210;6.504;2022-09-30T17:54:43;13.00;99.90
52058;DHT22;38063;53.210;6.504;2022-09-30T17:57:08;12.90;99.90
52058;DHT22;38063;53.210;6.504;2022-09-30T17:59:34;12.90;99.90
52058;DHT22;38063;53.210;6.504;2022-09-30T18:01:59;12.90;99.90
52058;DHT22;38063;53.210;6.504;2022-09-30T18:04:25;12.80;99.90
52058;DHT22;38063;53.210;6.504;2022-09-30T18:06:54;12.80;99.90
52058;DHT22;38063;53.210;6.504;2022-09-30T18:09:21;12.70;99.90
52058;DHT22;38063;53.210;6.504;2022-09-30T18:11:47;12.60;99.90
52058;DHT22;38063;53.210;6.504;2022-09-30T18:14:13;12.60;99.90
52058;DHT22;38063;53.210;6.504;2022-09-30T18:16:40;12.60;99.90
52058;DHT22;38063;53.210;6.504;2022-09-30T18:19:07;12.50;99.90
52058;DHT22;38063;53.210;6.504;2022-09-30T18:21:33;12.50;99.90
52058;DHT22;38063;53.210;6.504;2022-09-30T18:24:00;12.40;99.90
52058;DHT22;38063;53.210;6.504;2022-09-30T18:26:28;12.40;99.90
52058;DHT22;38063;53.210;6.504;2022-09-30T18:28:54;12.40;99.90
52058;DHT22;38063;53.210;6.504;2022-09-30T18:31:25;12.30;99.90
52058;DHT22;38063;53.210;6.504;2022-09-30T18:33:59;12.20;99.90
52058;DHT22;38063;53.210;6.504;2022-09-30T18:36:26;12.20;99.90
52058;DHT22;38063;53.210;6.504;2022-09-30T18:38:57;12.30;99.90
52058;DHT22;38063;53.210;6.504;2022-09-30T18:41:26;12.10;99.90
52058;DHT22;38063;53.210;6.504;2022-09-30T18:43:52;12.10;99.90
52058;DHT22;38063;53.210;6.504;2022-09-30T18:46:25;12.10;99.90
52058;DHT22;38063;53.210;6.504;2022-09-30T18:48:51;12.10;99.90
52058;DHT22;38063;53.210;6.504;2022-09-30T18:51:19;12.00;99.90
52058;DHT22;38063;53.210;6.504;2022-09-30T18:53:50;12.00;99.90
52058;DHT22;38063;53.210;6.504;2022-09-30T18:56:15;11.90;99.90
52058;DHT22;38063;53.210;6.504;2022-09-30T18:58:48;11.90;99.90
52058;DHT22;38063;53.210;6.504;2022-09-30T19:01:13;11.90;99.90
52058;DHT22;38063;53.210;6.504;2022-09-30T19:03:39;11.80;99.90